sensor_id;sensor_type;location;lat;lon;timestamp;P1;durP1;ratioP1;P2;durP2;ratioP2
11614;SDS011;5863;52.832;4.758;2023-06-14T00:01:40;7.95;;;3.10;;
11614;SDS011;5863;52.832;4.758;2023-06-14T00:04:10;6.93;;;2.78;;
11614;SDS011;5863;52.832;4.758;2023-06-14T00:06:37;3.30;;;2.60;;
11614;SDS011;5863;52.832;4.758;2023-06-14T00:09:04;6.55;;;3.17;;
11614;SDS011;5863;52.832;4.758;2023-06-14T00:11:34;3.08;;;2.67;;
11614;SDS011;5863;52.832;4.758;2023-06-14T00:14:01;5.03;;;2.70;;
11614;SDS011;5863;52.832;4.758;2023-06-14T00:16:28;2.90;;;2.45;;
11614;SDS011;5863;52.832;4.758;2023-06-14T00:18:55;6.22;;;2.70;;
11614;SDS011;5863;52.832;4.758;2023-06-14T00:21:22;5.45;;;2.85;;
11614;SDS011;5863;52.832;4.758;2023-06-14T00:23:49;6.68;;;2.63;;
11614;SDS011;5863;52.832;4.758;2023-06-14T00:26:15;7.43;;;2.92;;
11614;SDS011;5863;52.832;4.758;2023-06-14T00:28:43;3.30;;;2.30;;
11614;SDS011;5863;52.832;4.758;2023-06-14T00:31:10;4.07;;;2.40;;
11614;SDS011;5863;52.832;4.758;2023-06-14T00:33:37;5.05;;;2.78;;
11614;SDS011;5863;52.832;4.758;2023-06-14T00:36:04;7.13;;;2.60;;
11614;SDS011;5863;52.832;4.758;2023-06-14T00:38:30;5.03;;;2.65;;
11614;SDS011;5863;52.832;4.758;2023-06-14T00:40:57;4.63;;;2.40;;
11614;SDS011;5863;52.832;4.758;2023-06-14T00:43:24;5.18;;;2.35;;
11614;SDS011;5863;52.832;4.758;2023-06-14T00:45:52;4.75;;;2.55;;
11614;SDS011;5863;52.832;4.758;2023-06-14T00:48:18;3.92;;;2.60;;
11614;SDS011;5863;52.832;4.758;2023-06-14T00:50:46;5.57;;;2.30;;
11614;SDS011;5863;52.832;4.758;2023-06-14T00:53:14;3.33;;;2.60;;
11614;SDS011;5863;52.832;4.758;2023-06-14T00:55:42;4.15;;;2.20;;
11614;SDS011;5863;52.832;4.758;2023-06-14T00:58:09;4.20;;;2.60;;
11614;SDS011;5863;52.832;4.758;2023-06-14T01:00:36;4.72;;;2.33;;
11614;SDS011;5863;52.832;4.758;2023-06-14T01:03:04;5.82;;;2.50;;
11614;SDS011;5863;52.832;4.758;2023-06-14T01:05:31;8.57;;;2.47;;
11614;SDS011;5863;52.832;4.758;2023-06-14T01:08:07;5.97;;;2.60;;
11614;SDS011;5863;52.832;4.758;2023-06-14T01:10:46;3.45;;;2.33;;
11614;SDS011;5863;52.832;4.758;2023-06-14T01:13:19;10.43;;;2.70;;
11614;SDS011;5863;52.832;4.758;2023-06-14T01:15:49;5.85;;;2.63;;
11614;SDS011;5863;52.832;4.758;2023-06-14T01:18:19;6.38;;;2.60;;
11614;SDS011;5863;52.832;4.758;2023-06-14T01:20:46;3.70;;;2.22;;
11614;SDS011;5863;52.832;4.758;2023-06-14T01:23:16;3.65;;;2.55;;
11614;SDS011;5863;52.832;4.758;2023-06-14T01:25:43;4.20;;;2.25;;
11614;SDS011;5863;52.832;4.758;2023-06-14T01:28:12;5.10;;;2.63;;
11614;SDS011;5863;52.832;4.758;2023-06-14T01:30:42;5.78;;;2.47;;
11614;SDS011;5863;52.832;4.758;2023-06-14T01:33:11;4.45;;;2.20;;
11614;SDS011;5863;52.832;4.758;2023-06-14T01:35:41;4.93;;;2.75;;
11614;SDS011;5863;52.832;4.758;2023-06-14T01:38:09;3.83;;;2.50;;
11614;SDS011;5863;52.832;4.758;2023-06-14T01:40:38;4.13;;;2.63;;
11614;SDS011;5863;52.832;4.758;2023-06-14T01:43:06;7.60;;;2.33;;
11614;SDS011;5863;52.832;4.758;2023-06-14T01:45:33;3.65;;;2.50;;
11614;SDS011;5863;52.832;4.758;2023-06-14T01:48:01;4.32;;;2.47;;
11614;SDS011;5863;52.832;4.758;2023-06-14T01:50:29;7.65;;;2.63;;
11614;SDS011;5863;52.832;4.758;2023-06-14T01:52:56;4.68;;;2.65;;
11614;SDS011;5863;52.832;4.758;2023-06-14T01:55:23;3.58;;;2.63;;
11614;SDS011;5863;52.832;4.758;2023-06-14T01:57:52;3.25;;;2.33;;
11614;SDS011;5863;52.832;4.758;2023-06-14T02:00:19;8.35;;;2.60;;
11614;SDS011;5863;52.832;4.758;2023-06-14T02:02:46;4.47;;;2.25;;
11614;SDS011;5863;52.832;4.758;2023-06-14T02:05:14;4.07;;;2.42;;
11614;SDS011;5863;52.832;4.758;2023-06-14T02:07:43;4.28;;;2.67;;
11614;SDS011;5863;52.832;4.758;2023-06-14T02:10:10;4.10;;;2.50;;
11614;SDS011;5863;52.832;4.758;2023-06-14T02:12:37;5.00;;;2.65;;
11614;SDS011;5863;52.832;4.758;2023-06-14T02:15:05;2.45;;;2.05;;
11614;SDS011;5863;52.832;4.758;2023-06-14T02:17:33;3.35;;;2.47;;
11614;SDS011;5863;52.832;4.758;2023-06-14T02:20:00;3.05;;;2.10;;
11614;SDS011;5863;52.832;4.758;2023-06-14T02:22:30;7.88;;;2.67;;
11614;SDS011;5863;52.832;4.758;2023-06-14T02:24:57;7.38;;;2.45;;
11614;SDS011;5863;52.832;4.758;2023-06-14T02:27:24;3.03;;;2.17;;
11614;SDS011;5863;52.832;4.758;2023-06-14T02:29:50;2.58;;;2.25;;
11614;SDS011;5863;52.832;4.758;2023-06-14T02:32:18;2.72;;;2.22;;
11614;SDS011;5863;52.832;4.758;2023-06-14T02:34:45;4.60;;;2.22;;
11614;SDS011;5863;52.832;4.758;2023-06-14T02:37:15;4.15;;;2.40;;
11614;SDS011;5863;52.832;4.758;2023-06-14T02:39:41;5.15;;;2.30;;
11614;SDS011;5863;52.832;4.758;2023-06-14T02:42:08;6.30;;;2.70;;
11614;SDS011;5863;52.832;4.758;2023-06-14T02:44:35;5.70;;;2.40;;
11614;SDS011;5863;52.832;4.758;2023-06-14T02:47:02;2.72;;;2.20;;
11614;SDS011;5863;52.832;4.758;2023-06-14T02:49:30;3.22;;;2.30;;
11614;SDS011;5863;52.832;4.758;2023-06-14T02:51:57;4.93;;;2.50;;
11614;SDS011;5863;52.832;4.758;2023-06-14T02:54:23;2.88;;;2.20;;
11614;SDS011;5863;52.832;4.758;2023-06-14T02:56:50;2.50;;;2.00;;
11614;SDS011;5863;52.832;4.758;2023-06-14T02:59:17;4.70;;;2.40;;
11614;SDS011;5863;52.832;4.758;2023-06-14T03:01:44;6.40;;;2.78;;
11614;SDS011;5863;52.832;4.758;2023-06-14T03:04:10;4.40;;;2.47;;
11614;SDS011;5863;52.832;4.758;2023-06-14T03:06:38;5.75;;;2.40;;
11614;SDS011;5863;52.832;4.758;2023-06-14T03:09:05;4.32;;;2.40;;
11614;SDS011;5863;52.832;4.758;2023-06-14T03:11:34;4.50;;;2.33;;
11614;SDS011;5863;52.832;4.758;2023-06-14T03:14:01;2.95;;;2.20;;
11614;SDS011;5863;52.832;4.758;2023-06-14T03:16:29;3.95;;;2.58;;
11614;SDS011;5863;52.832;4.758;2023-06-14T03:18:56;5.65;;;2.63;;
11614;SDS011;5863;52.832;4.758;2023-06-14T03:21:23;5.38;;;2.60;;
11614;SDS011;5863;52.832;4.758;2023-06-14T03:23:51;2.97;;;2.53;;
11614;SDS011;5863;52.832;4.758;2023-06-14T03:26:18;4.05;;;2.55;;
11614;SDS011;5863;52.832;4.758;2023-06-14T03:28:45;3.05;;;2.30;;
11614;SDS011;5863;52.832;4.758;2023-06-14T03:31:12;6.28;;;2.50;;
11614;SDS011;5863;52.832;4.758;2023-06-14T03:33:39;5.88;;;2.38;;
11614;SDS011;5863;52.832;4.758;2023-06-14T03:36:06;3.70;;;2.25;;
11614;SDS011;5863;52.832;4.758;2023-06-14T03:38:32;7.97;;;2.35;;
11614;SDS011;5863;52.832;4.758;2023-06-14T03:41:01;3.53;;;2.30;;
11614;SDS011;5863;52.832;4.758;2023-06-14T03:43:27;4.60;;;2.33;;
11614;SDS011;5863;52.832;4.758;2023-06-14T03:45:55;4.88;;;2.70;;
11614;SDS011;5863;52.832;4.758;2023-06-14T03:48:21;7.13;;;2.53;;
11614;SDS011;5863;52.832;4.758;2023-06-14T03:50:48;4.72;;;2.40;;
11614;SDS011;5863;52.832;4.758;2023-06-14T03:53:15;3.40;;;2.20;;
11614;SDS011;5863;52.832;4.758;2023-06-14T03:55:42;4.85;;;2.40;;
11614;SDS011;5863;52.832;4.758;2023-06-14T03:58:10;3.35;;;2.35;;
11614;SDS011;5863;52.832;4.758;2023-06-14T04:00:38;2.88;;;2.50;;
11614;SDS011;5863;52.832;4.758;2023-06-14T04:03:05;4.03;;;2.40;;
11614;SDS011;5863;52.832;4.758;2023-06-14T04:05:31;8.55;;;2.60;;
11614;SDS011;5863;52.832;4.758;2023-06-14T04:07:58;3.40;;;2.55;;
11614;SDS011;5863;52.832;4.758;2023-06-14T04:10:25;4.68;;;2.55;;
11614;SDS011;5863;52.832;4.758;2023-06-14T04:12:52;3.03;;;2.47;;
11614;SDS011;5863;52.832;4.758;2023-06-14T04:15:20;3.63;;;2.25;;
11614;SDS011;5863;52.832;4.758;2023-06-14T04:17:47;7.45;;;2.55;;
11614;SDS011;5863;52.832;4.758;2023-06-14T04:20:14;3.97;;;2.70;;
11614;SDS011;5863;52.832;4.758;2023-06-14T04:22:42;6.65;;;2.30;;
11614;SDS011;5863;52.832;4.758;2023-06-14T04:25:08;3.35;;;2.40;;
11614;SDS011;5863;52.832;4.758;2023-06-14T04:27:37;4.70;;;2.50;;
11614;SDS011;5863;52.832;4.758;2023-06-14T04:30:05;5.07;;;2.53;;
11614;SDS011;5863;52.832;4.758;2023-06-14T04:32:33;3.63;;;2.45;;
11614;SDS011;5863;52.832;4.758;2023-06-14T04:35:04;3.17;;;2.47;;
11614;SDS011;5863;52.832;4.758;2023-06-14T04:37:32;2.65;;;2.45;;
11614;SDS011;5863;52.832;4.758;2023-06-14T04:39:59;3.20;;;2.40;;
11614;SDS011;5863;52.832;4.758;2023-06-14T04:42:26;3.75;;;2.58;;
11614;SDS011;5863;52.832;4.758;2023-06-14T04:44:55;3.42;;;2.75;;
11614;SDS011;5863;52.832;4.758;2023-06-14T04:47:22;2.65;;;2.30;;
11614;SDS011;5863;52.832;4.758;2023-06-14T04:49:56;2.65;;;2.13;;
11614;SDS011;5863;52.832;4.758;2023-06-14T04:52:23;3.22;;;2.75;;
11614;SDS011;5863;52.832;4.758;2023-06-14T04:54:51;3.50;;;2.25;;
11614;SDS011;5863;52.832;4.758;2023-06-14T04:57:19;4.45;;;2.15;;
11614;SDS011;5863;52.832;4.758;2023-06-14T04:59:47;3.22;;;2.42;;
11614;SDS011;5863;52.832;4.758;2023-06-14T05:02:20;3.63;;;2.38;;
11614;SDS011;5863;52.832;4.758;2023-06-14T05:04:48;3.42;;;2.15;;
11614;SDS011;5863;52.832;4.758;2023-06-14T05:07:16;3.55;;;2.20;;
11614;SDS011;5863;52.832;4.758;2023-06-14T05:09:44;3.28;;;2.40;;
11614;SDS011;5863;52.832;4.758;2023-06-14T05:12:11;4.53;;;2.55;;
11614;SDS011;5863;52.832;4.758;2023-06-14T05:14:37;2.65;;;2.05;;
11614;SDS011;5863;52.832;4.758;2023-06-14T05:17:04;5.47;;;2.25;;
11614;SDS011;5863;52.832;4.758;2023-06-14T05:19:31;2.90;;;2.17;;
11614;SDS011;5863;52.832;4.758;2023-06-14T05:21:58;3.42;;;2.42;;
11614;SDS011;5863;52.832;4.758;2023-06-14T05:24:26;3.05;;;2.00;;
11614;SDS011;5863;52.832;4.758;2023-06-14T05:26:54;2.45;;;2.00;;
11614;SDS011;5863;52.832;4.758;2023-06-14T05:29:21;3.40;;;2.40;;
11614;SDS011;5863;52.832;4.758;2023-06-14T05:31:48;4.95;;;2.95;;
11614;SDS011;5863;52.832;4.758;2023-06-14T05:34:14;3.90;;;2.42;;
11614;SDS011;5863;52.832;4.758;2023-06-14T05:36:41;4.30;;;2.25;;
11614;SDS011;5863;52.832;4.758;2023-06-14T05:39:08;3.78;;;2.17;;
11614;SDS011;5863;52.832;4.758;2023-06-14T05:41:36;3.33;;;2.20;;
11614;SDS011;5863;52.832;4.758;2023-06-14T05:44:03;2.28;;;2.00;;
11614;SDS011;5863;52.832;4.758;2023-06-14T05:46:30;2.20;;;2.00;;
11614;SDS011;5863;52.832;4.758;2023-06-14T05:48:56;4.53;;;2.22;;
11614;SDS011;5863;52.832;4.758;2023-06-14T05:51:23;3.85;;;2.25;;
11614;SDS011;5863;52.832;4.758;2023-06-14T05:53:51;3.10;;;2.40;;
11614;SDS011;5863;52.832;4.758;2023-06-14T05:56:19;3.78;;;2.20;;
11614;SDS011;5863;52.832;4.758;2023-06-14T05:58:47;2.40;;;2.20;;
11614;SDS011;5863;52.832;4.758;2023-06-14T06:01:14;3.38;;;2.38;;
11614;SDS011;5863;52.832;4.758;2023-06-14T06:03:41;9.30;;;2.40;;
11614;SDS011;5863;52.832;4.758;2023-06-14T06:06:10;3.67;;;2.42;;
11614;SDS011;5863;52.832;4.758;2023-06-14T06:08:37;4.50;;;2.45;;
11614;SDS011;5863;52.832;4.758;2023-06-14T06:11:04;3.10;;;2.47;;
11614;SDS011;5863;52.832;4.758;2023-06-14T06:13:30;6.00;;;2.30;;
11614;SDS011;5863;52.832;4.758;2023-06-14T06:15:59;3.15;;;2.28;;
11614;SDS011;5863;52.832;4.758;2023-06-14T06:18:25;3.53;;;2.70;;
11614;SDS011;5863;52.832;4.758;2023-06-14T06:20:52;2.72;;;2.53;;
11614;SDS011;5863;52.832;4.758;2023-06-14T06:23:19;5.30;;;2.53;;
11614;SDS011;5863;52.832;4.758;2023-06-14T06:25:45;6.10;;;2.63;;
11614;SDS011;5863;52.832;4.758;2023-06-14T06:28:12;5.28;;;2.75;;
11614;SDS011;5863;52.832;4.758;2023-06-14T06:30:39;4.10;;;2.50;;
11614;SDS011;5863;52.832;4.758;2023-06-14T06:33:07;2.78;;;2.45;;
11614;SDS011;5863;52.832;4.758;2023-06-14T06:35:33;4.78;;;2.78;;
11614;SDS011;5863;52.832;4.758;2023-06-14T06:38:00;5.95;;;2.67;;
11614;SDS011;5863;52.832;4.758;2023-06-14T06:40:27;3.85;;;2.35;;
11614;SDS011;5863;52.832;4.758;2023-06-14T06:42:53;2.50;;;2.13;;
11614;SDS011;5863;52.832;4.758;2023-06-14T06:45:20;3.78;;;2.75;;
11614;SDS011;5863;52.832;4.758;2023-06-14T06:47:48;4.88;;;3.15;;
11614;SDS011;5863;52.832;4.758;2023-06-14T06:50:17;5.47;;;2.35;;
11614;SDS011;5863;52.832;4.758;2023-06-14T06:52:44;4.20;;;2.50;;
11614;SDS011;5863;52.832;4.758;2023-06-14T06:55:11;4.45;;;2.35;;
11614;SDS011;5863;52.832;4.758;2023-06-14T06:57:38;4.28;;;2.78;;
11614;SDS011;5863;52.832;4.758;2023-06-14T07:00:05;4.60;;;2.80;;
11614;SDS011;5863;52.832;4.758;2023-06-14T07:02:37;3.13;;;2.58;;
11614;SDS011;5863;52.832;4.758;2023-06-14T07:05:04;5.78;;;2.40;;
11614;SDS011;5863;52.832;4.758;2023-06-14T07:07:32;5.05;;;3.03;;
11614;SDS011;5863;52.832;4.758;2023-06-14T07:09:59;7.15;;;2.95;;
11614;SDS011;5863;52.832;4.758;2023-06-14T07:12:26;4.22;;;3.03;;
11614;SDS011;5863;52.832;4.758;2023-06-14T07:14:54;4.32;;;2.60;;
11614;SDS011;5863;52.832;4.758;2023-06-14T07:17:21;6.45;;;2.78;;
11614;SDS011;5863;52.832;4.758;2023-06-14T07:19:47;5.07;;;2.58;;
11614;SDS011;5863;52.832;4.758;2023-06-14T07:22:14;3.13;;;2.75;;
11614;SDS011;5863;52.832;4.758;2023-06-14T07:24:42;5.15;;;2.92;;
11614;SDS011;5863;52.832;4.758;2023-06-14T07:27:09;7.78;;;3.08;;
11614;SDS011;5863;52.832;4.758;2023-06-14T07:29:36;4.47;;;2.72;;
11614;SDS011;5863;52.832;4.758;2023-06-14T07:32:03;4.78;;;2.80;;
11614;SDS011;5863;52.832;4.758;2023-06-14T07:34:30;5.20;;;2.88;;
11614;SDS011;5863;52.832;4.758;2023-06-14T07:36:57;2.90;;;2.60;;
11614;SDS011;5863;52.832;4.758;2023-06-14T07:39:24;4.63;;;3.03;;
11614;SDS011;5863;52.832;4.758;2023-06-14T07:41:52;5.10;;;2.53;;
11614;SDS011;5863;52.832;4.758;2023-06-14T07:44:18;3.83;;;2.53;;
11614;SDS011;5863;52.832;4.758;2023-06-14T07:46:45;3.28;;;2.42;;
11614;SDS011;5863;52.832;4.758;2023-06-14T07:49:14;3.28;;;2.53;;
11614;SDS011;5863;52.832;4.758;2023-06-14T07:51:41;5.10;;;2.67;;
11614;SDS011;5863;52.832;4.758;2023-06-14T07:54:09;3.50;;;2.45;;
11614;SDS011;5863;52.832;4.758;2023-06-14T07:56:36;3.10;;;2.50;;
11614;SDS011;5863;52.832;4.758;2023-06-14T07:59:04;5.85;;;2.75;;
11614;SDS011;5863;52.832;4.758;2023-06-14T08:01:31;3.22;;;2.40;;
11614;SDS011;5863;52.832;4.758;2023-06-14T08:03:58;3.72;;;2.70;;
11614;SDS011;5863;52.832;4.758;2023-06-14T08:06:25;3.17;;;2.53;;
11614;SDS011;5863;52.832;4.758;2023-06-14T08:08:51;3.67;;;2.80;;
11614;SDS011;5863;52.832;4.758;2023-06-14T08:11:18;6.95;;;2.40;;
11614;SDS011;5863;52.832;4.758;2023-06-14T08:13:45;3.17;;;2.83;;
11614;SDS011;5863;52.832;4.758;2023-06-14T08:16:13;6.45;;;2.70;;
11614;SDS011;5863;52.832;4.758;2023-06-14T08:18:40;7.28;;;3.00;;
11614;SDS011;5863;52.832;4.758;2023-06-14T08:21:07;3.30;;;2.70;;
11614;SDS011;5863;52.832;4.758;2023-06-14T08:23:34;3.53;;;2.63;;
11614;SDS011;5863;52.832;4.758;2023-06-14T08:26:01;4.47;;;2.70;;
11614;SDS011;5863;52.832;4.758;2023-06-14T08:28:29;3.67;;;2.58;;
11614;SDS011;5863;52.832;4.758;2023-06-14T08:30:55;3.25;;;2.53;;
11614;SDS011;5863;52.832;4.758;2023-06-14T08:33:23;8.15;;;2.70;;
11614;SDS011;5863;52.832;4.758;2023-06-14T08:35:50;8.57;;;2.55;;
11614;SDS011;5863;52.832;4.758;2023-06-14T08:38:17;4.28;;;2.55;;
11614;SDS011;5863;52.832;4.758;2023-06-14T08:40:43;6.85;;;2.60;;
11614;SDS011;5863;52.832;4.758;2023-06-14T08:43:13;4.57;;;2.70;;
11614;SDS011;5863;52.832;4.758;2023-06-14T08:45:40;4.45;;;2.53;;
11614;SDS011;5863;52.832;4.758;2023-06-14T08:48:07;2.63;;;2.40;;
11614;SDS011;5863;52.832;4.758;2023-06-14T08:50:35;5.22;;;2.70;;
11614;SDS011;5863;52.832;4.758;2023-06-14T08:53:06;4.85;;;2.50;;
11614;SDS011;5863;52.832;4.758;2023-06-14T08:55:35;5.70;;;2.88;;
11614;SDS011;5863;52.832;4.758;2023-06-14T08:58:04;5.80;;;2.97;;
11614;SDS011;5863;52.832;4.758;2023-06-14T09:00:34;5.55;;;2.65;;
11614;SDS011;5863;52.832;4.758;2023-06-14T09:03:03;8.35;;;2.95;;
11614;SDS011;5863;52.832;4.758;2023-06-14T09:05:30;4.60;;;2.55;;
11614;SDS011;5863;52.832;4.758;2023-06-14T09:07:58;2.88;;;2.63;;
11614;SDS011;5863;52.832;4.758;2023-06-14T09:10:26;4.95;;;2.50;;
11614;SDS011;5863;52.832;4.758;2023-06-14T09:12:54;5.95;;;2.60;;
11614;SDS011;5863;52.832;4.758;2023-06-14T09:15:21;3.92;;;2.75;;
11614;SDS011;5863;52.832;4.758;2023-06-14T09:17:48;3.42;;;2.40;;
11614;SDS011;5863;52.832;4.758;2023-06-14T09:20:15;4.50;;;2.35;;
11614;SDS011;5863;52.832;4.758;2023-06-14T09:22:43;3.17;;;2.17;;
11614;SDS011;5863;52.832;4.758;2023-06-14T09:25:12;2.35;;;1.88;;
11614;SDS011;5863;52.832;4.758;2023-06-14T09:27:40;5.10;;;2.47;;
11614;SDS011;5863;52.832;4.758;2023-06-14T09:30:08;6.60;;;2.45;;
11614;SDS011;5863;52.832;4.758;2023-06-14T09:32:36;3.13;;;2.05;;
11614;SDS011;5863;52.832;4.758;2023-06-14T09:35:04;3.97;;;2.10;;
11614;SDS011;5863;52.832;4.758;2023-06-14T09:37:32;4.18;;;1.80;;
11614;SDS011;5863;52.832;4.758;2023-06-14T09:39:59;8.20;;;2.10;;
11614;SDS011;5863;52.832;4.758;2023-06-14T09:42:27;7.05;;;2.10;;
11614;SDS011;5863;52.832;4.758;2023-06-14T09:44:55;5.85;;;1.90;;
11614;SDS011;5863;52.832;4.758;2023-06-14T09:47:23;3.55;;;2.00;;
11614;SDS011;5863;52.832;4.758;2023-06-14T09:49:50;2.78;;;2.00;;
11614;SDS011;5863;52.832;4.758;2023-06-14T09:52:19;2.70;;;1.85;;
11614;SDS011;5863;52.832;4.758;2023-06-14T09:54:48;4.28;;;1.70;;
11614;SDS011;5863;52.832;4.758;2023-06-14T09:57:15;3.47;;;2.00;;
11614;SDS011;5863;52.832;4.758;2023-06-14T09:59:45;4.25;;;1.95;;
11614;SDS011;5863;52.832;4.758;2023-06-14T10:02:14;1.85;;;1.75;;
11614;SDS011;5863;52.832;4.758;2023-06-14T10:04:50;3.88;;;1.95;;
11614;SDS011;5863;52.832;4.758;2023-06-14T10:07:25;3.80;;;2.00;;
11614;SDS011;5863;52.832;4.758;2023-06-14T10:09:55;5.30;;;2.05;;
11614;SDS011;5863;52.832;4.758;2023-06-14T10:12:22;6.75;;;1.95;;
11614;SDS011;5863;52.832;4.758;2023-06-14T10:14:51;3.78;;;2.10;;
11614;SDS011;5863;52.832;4.758;2023-06-14T10:17:21;4.63;;;1.95;;
11614;SDS011;5863;52.832;4.758;2023-06-14T10:19:54;2.40;;;2.05;;
11614;SDS011;5863;52.832;4.758;2023-06-14T10:22:30;3.28;;;2.05;;
11614;SDS011;5863;52.832;4.758;2023-06-14T10:25:02;2.60;;;2.30;;
11614;SDS011;5863;52.832;4.758;2023-06-14T10:27:32;2.90;;;2.10;;
11614;SDS011;5863;52.832;4.758;2023-06-14T10:30:04;3.92;;;2.13;;
11614;SDS011;5863;52.832;4.758;2023-06-14T10:32:33;2.28;;;2.08;;
11614;SDS011;5863;52.832;4.758;2023-06-14T10:35:01;3.17;;;2.00;;
11614;SDS011;5863;52.832;4.758;2023-06-14T10:37:30;3.67;;;2.05;;
11614;SDS011;5863;52.832;4.758;2023-06-14T10:39:57;6.03;;;2.30;;
11614;SDS011;5863;52.832;4.758;2023-06-14T10:42:27;3.97;;;2.33;;
11614;SDS011;5863;52.832;4.758;2023-06-14T10:44:57;3.10;;;2.10;;
11614;SDS011;5863;52.832;4.758;2023-06-14T10:47:27;3.88;;;2.50;;
11614;SDS011;5863;52.832;4.758;2023-06-14T10:49:55;5.78;;;2.30;;
11614;SDS011;5863;52.832;4.758;2023-06-14T10:52:25;2.38;;;1.90;;
11614;SDS011;5863;52.832;4.758;2023-06-14T10:55:04;2.35;;;2.10;;
11614;SDS011;5863;52.832;4.758;2023-06-14T10:57:34;3.15;;;2.50;;
11614;SDS011;5863;52.832;4.758;2023-06-14T11:00:02;3.83;;;2.25;;
11614;SDS011;5863;52.832;4.758;2023-06-14T11:05:48;5.18;;;2.78;;
11614;SDS011;5863;52.832;4.758;2023-06-14T11:08:26;2.40;;;2.20;;
11614;SDS011;5863;52.832;4.758;2023-06-14T11:11:05;2.40;;;2.05;;
11614;SDS011;5863;52.832;4.758;2023-06-14T11:13:33;4.60;;;2.58;;
11614;SDS011;5863;52.832;4.758;2023-06-14T11:16:00;3.80;;;2.05;;
11614;SDS011;5863;52.832;4.758;2023-06-14T11:18:28;6.88;;;2.20;;
11614;SDS011;5863;52.832;4.758;2023-06-14T11:20:56;5.80;;;2.00;;
11614;SDS011;5863;52.832;4.758;2023-06-14T11:23:23;3.58;;;2.15;;
11614;SDS011;5863;52.832;4.758;2023-06-14T11:25:50;4.38;;;2.08;;
11614;SDS011;5863;52.832;4.758;2023-06-14T11:28:17;2.55;;;1.90;;
11614;SDS011;5863;52.832;4.758;2023-06-14T11:30:45;5.15;;;2.08;;
11614;SDS011;5863;52.832;4.758;2023-06-14T11:33:16;4.25;;;2.10;;
11614;SDS011;5863;52.832;4.758;2023-06-14T11:35:43;3.20;;;2.00;;
11614;SDS011;5863;52.832;4.758;2023-06-14T11:38:11;3.30;;;2.10;;
11614;SDS011;5863;52.832;4.758;2023-06-14T11:40:39;3.05;;;2.20;;
11614;SDS011;5863;52.832;4.758;2023-06-14T11:43:05;3.75;;;2.20;;
11614;SDS011;5863;52.832;4.758;2023-06-14T11:45:32;4.82;;;2.20;;
11614;SDS011;5863;52.832;4.758;2023-06-14T11:47:59;3.40;;;1.92;;
11614;SDS011;5863;52.832;4.758;2023-06-14T11:50:26;5.07;;;2.10;;
11614;SDS011;5863;52.832;4.758;2023-06-14T11:52:54;4.18;;;2.10;;
11614;SDS011;5863;52.832;4.758;2023-06-14T11:55:22;3.72;;;2.10;;
11614;SDS011;5863;52.832;4.758;2023-06-14T11:57:49;4.00;;;2.33;;
11614;SDS011;5863;52.832;4.758;2023-06-14T12:00:17;7.53;;;2.10;;
11614;SDS011;5863;52.832;4.758;2023-06-14T12:02:52;4.30;;;2.08;;
11614;SDS011;5863;52.832;4.758;2023-06-14T12:05:20;6.88;;;2.13;;
11614;SDS011;5863;52.832;4.758;2023-06-14T12:07:48;6.30;;;2.10;;
11614;SDS011;5863;52.832;4.758;2023-06-14T12:10:15;5.85;;;2.25;;
11614;SDS011;5863;52.832;4.758;2023-06-14T12:12:44;5.20;;;1.88;;
11614;SDS011;5863;52.832;4.758;2023-06-14T12:15:11;2.58;;;1.90;;
11614;SDS011;5863;52.832;4.758;2023-06-14T12:17:38;2.95;;;1.85;;
11614;SDS011;5863;52.832;4.758;2023-06-14T12:20:08;2.65;;;1.80;;
11614;SDS011;5863;52.832;4.758;2023-06-14T12:22:38;4.25;;;1.80;;
11614;SDS011;5863;52.832;4.758;2023-06-14T12:25:05;3.65;;;1.80;;
11614;SDS011;5863;52.832;4.758;2023-06-14T12:27:34;2.00;;;1.80;;
11614;SDS011;5863;52.832;4.758;2023-06-14T12:30:03;4.18;;;2.00;;
11614;SDS011;5863;52.832;4.758;2023-06-14T12:32:32;1.73;;;1.63;;
11614;SDS011;5863;52.832;4.758;2023-06-14T12:34:59;3.30;;;1.67;;
11614;SDS011;5863;52.832;4.758;2023-06-14T12:37:26;2.28;;;1.70;;
11614;SDS011;5863;52.832;4.758;2023-06-14T12:39:52;2.03;;;1.83;;
11614;SDS011;5863;52.832;4.758;2023-06-14T12:42:19;3.75;;;2.00;;
11614;SDS011;5863;52.832;4.758;2023-06-14T12:44:46;4.70;;;1.77;;
11614;SDS011;5863;52.832;4.758;2023-06-14T12:47:13;1.77;;;1.60;;
11614;SDS011;5863;52.832;4.758;2023-06-14T12:49:40;5.72;;;1.70;;
11614;SDS011;5863;52.832;4.758;2023-06-14T12:52:07;2.50;;;1.90;;
11614;SDS011;5863;52.832;4.758;2023-06-14T12:54:34;2.65;;;2.35;;
11614;SDS011;5863;52.832;4.758;2023-06-14T12:57:01;2.15;;;1.85;;
11614;SDS011;5863;52.832;4.758;2023-06-14T12:59:28;4.47;;;2.10;;
11614;SDS011;5863;52.832;4.758;2023-06-14T13:01:58;5.18;;;2.10;;
11614;SDS011;5863;52.832;4.758;2023-06-14T13:04:27;3.42;;;2.00;;
11614;SDS011;5863;52.832;4.758;2023-06-14T13:06:53;5.93;;;2.53;;
11614;SDS011;5863;52.832;4.758;2023-06-14T13:09:20;2.28;;;1.88;;
11614;SDS011;5863;52.832;4.758;2023-06-14T13:11:47;4.55;;;2.00;;
11614;SDS011;5863;52.832;4.758;2023-06-14T13:14:14;2.88;;;2.03;;
11614;SDS011;5863;52.832;4.758;2023-06-14T13:16:41;2.40;;;1.92;;
11614;SDS011;5863;52.832;4.758;2023-06-14T13:19:07;8.23;;;2.33;;
11614;SDS011;5863;52.832;4.758;2023-06-14T13:21:35;3.70;;;1.90;;
11614;SDS011;5863;52.832;4.758;2023-06-14T13:24:02;2.30;;;2.10;;
11614;SDS011;5863;52.832;4.758;2023-06-14T13:26:30;5.05;;;1.95;;
11614;SDS011;5863;52.832;4.758;2023-06-14T13:28:56;1.70;;;1.60;;
11614;SDS011;5863;52.832;4.758;2023-06-14T13:31:23;4.25;;;2.03;;
11614;SDS011;5863;52.832;4.758;2023-06-14T13:33:50;4.47;;;1.90;;
11614;SDS011;5863;52.832;4.758;2023-06-14T13:36:16;1.80;;;1.70;;
11614;SDS011;5863;52.832;4.758;2023-06-14T13:38:44;4.10;;;2.20;;
11614;SDS011;5863;52.832;4.758;2023-06-14T13:41:11;4.20;;;2.28;;
11614;SDS011;5863;52.832;4.758;2023-06-14T13:43:38;3.88;;;1.98;;
11614;SDS011;5863;52.832;4.758;2023-06-14T13:46:05;2.35;;;1.98;;
11614;SDS011;5863;52.832;4.758;2023-06-14T13:48:32;2.03;;;1.63;;
11614;SDS011;5863;52.832;4.758;2023-06-14T13:50:59;2.28;;;1.92;;
11614;SDS011;5863;52.832;4.758;2023-06-14T13:53:28;6.88;;;2.25;;
11614;SDS011;5863;52.832;4.758;2023-06-14T13:55:56;5.38;;;2.20;;
11614;SDS011;5863;52.832;4.758;2023-06-14T13:58:23;3.83;;;2.10;;
11614;SDS011;5863;52.832;4.758;2023-06-14T14:00:50;2.10;;;1.70;;
11614;SDS011;5863;52.832;4.758;2023-06-14T14:03:17;2.78;;;1.80;;
11614;SDS011;5863;52.832;4.758;2023-06-14T14:05:45;5.13;;;1.98;;
11614;SDS011;5863;52.832;4.758;2023-06-14T14:08:11;2.33;;;1.70;;
11614;SDS011;5863;52.832;4.758;2023-06-14T14:10:38;3.53;;;1.92;;
11614;SDS011;5863;52.832;4.758;2023-06-14T14:13:06;2.60;;;1.70;;
11614;SDS011;5863;52.832;4.758;2023-06-14T14:15:33;1.90;;;1.80;;
11614;SDS011;5863;52.832;4.758;2023-06-14T14:18:00;2.20;;;1.90;;
11614;SDS011;5863;52.832;4.758;2023-06-14T14:20:29;1.77;;;1.67;;
11614;SDS011;5863;52.832;4.758;2023-06-14T14:22:56;2.95;;;2.05;;
11614;SDS011;5863;52.832;4.758;2023-06-14T14:25:22;3.17;;;1.92;;
11614;SDS011;5863;52.832;4.758;2023-06-14T14:27:49;4.35;;;1.88;;
11614;SDS011;5863;52.832;4.758;2023-06-14T14:30:17;3.53;;;1.70;;
11614;SDS011;5863;52.832;4.758;2023-06-14T14:32:48;2.55;;;2.13;;
11614;SDS011;5863;52.832;4.758;2023-06-14T14:35:16;4.78;;;2.08;;
11614;SDS011;5863;52.832;4.758;2023-06-14T14:37:43;2.97;;;1.83;;
11614;SDS011;5863;52.832;4.758;2023-06-14T14:40:10;2.00;;;1.80;;
11614;SDS011;5863;52.832;4.758;2023-06-14T14:42:37;2.20;;;1.73;;
11614;SDS011;5863;52.832;4.758;2023-06-14T14:45:05;6.53;;;2.58;;
11614;SDS011;5863;52.832;4.758;2023-06-14T14:47:34;6.05;;;2.63;;
11614;SDS011;5863;52.832;4.758;2023-06-14T14:50:01;3.60;;;2.15;;
11614;SDS011;5863;52.832;4.758;2023-06-14T14:52:28;7.47;;;3.40;;
11614;SDS011;5863;52.832;4.758;2023-06-14T14:54:54;7.07;;;2.70;;
11614;SDS011;5863;52.832;4.758;2023-06-14T14:57:21;5.95;;;3.00;;
11614;SDS011;5863;52.832;4.758;2023-06-14T14:59:48;8.55;;;2.88;;
11614;SDS011;5863;52.832;4.758;2023-06-14T15:02:14;4.07;;;2.50;;
11614;SDS011;5863;52.832;4.758;2023-06-14T15:04:43;4.75;;;2.33;;
11614;SDS011;5863;52.832;4.758;2023-06-14T15:07:10;4.40;;;2.70;;